sensor_id;sensor_type;location;lat;lon;timestamp;temperature;humidity
45643;DHT22;31358;46.008;11.144;2023-04-03T00:02:07;10.90;79.40
45643;DHT22;31358;46.008;11.144;2023-04-03T00:04:33;10.70;79.70
45643;DHT22;31358;46.008;11.144;2023-04-03T00:06:58;11.00;79.10
45643;DHT22;31358;46.008;11.144;2023-04-03T00:09:24;11.10;79.00
45643;DHT22;31358;46.008;11.144;2023-04-03T00:11:50;10.90;79.60
45643;DHT22;31358;46.008;11.144;2023-04-03T00:14:16;10.90;79.60
45643;DHT22;31358;46.008;11.144;2023-04-03T00:16:41;10.70;80.30
45643;DHT22;31358;46.008;11.144;2023-04-03T00:19:07;10.80;79.80
45643;DHT22;31358;46.008;11.144;2023-04-03T00:21:33;10.70;80.00
45643;DHT22;31358;46.008;11.144;2023-04-03T00:23:58;10.90;79.50
45643;DHT22;31358;46.008;11.144;2023-04-03T00:26:24;10.80;79.80
45643;DHT22;31358;46.008;11.144;2023-04-03T00:28:50;10.70;80.20
45643;DHT22;31358;46.008;11.144;2023-04-03T00:31:16;10.50;80.40
45643;DHT22;31358;46.008;11.144;2023-04-03T00:33:42;10.50;80.40
45643;DHT22;31358;46.008;11.144;2023-04-03T00:36:09;10.20;81.30
45643;DHT22;31358;46.008;11.144;2023-04-03T00:38:35;10.30;81.10
45643;DHT22;31358;46.008;11.144;2023-04-03T00:41:02;10.20;81.20
45643;DHT22;31358;46.008;11.144;2023-04-03T00:43:28;10.00;81.70
45643;DHT22;31358;46.008;11.144;2023-04-03T00:45:58;10.30;81.10
45643;DHT22;31358;46.008;11.144;2023-04-03T00:48:25;10.60;80.10
45643;DHT22;31358;46.008;11.144;2023-04-03T00:50:52;10.50;80.20
45643;DHT22;31358;46.008;11.144;2023-04-03T00:53:23;10.40;80.30
45643;DHT22;31358;46.008;11.144;2023-04-03T00:55:50;10.30;80.70
45643;DHT22;31358;46.008;11.144;2023-04-03T00:58:18;10.30;80.80
45643;DHT22;31358;46.008;11.144;2023-04-03T01:00:50;10.50;80.40
45643;DHT22;31358;46.008;11.144;2023-04-03T01:03:19;10.40;80.80
45643;DHT22;31358;46.008;11.144;2023-04-03T01:05:45;11.00;79.50
45643;DHT22;31358;46.008;11.144;2023-04-03T01:08:11;10.90;79.50
45643;DHT22;31358;46.008;11.144;2023-04-03T01:10:37;10.70;80.10
45643;DHT22;31358;46.008;11.144;2023-04-03T01:13:18;10.80;79.90
45643;DHT22;31358;46.008;11.144;2023-04-03T01:15:44;10.80;80.00
45643;DHT22;31358;46.008;11.144;2023-04-03T01:18:10;10.80;80.00
45643;DHT22;31358;46.008;11.144;2023-04-03T01:21:36;11.00;79.80
45643;DHT22;31358;46.008;11.144;2023-04-03T01:26:11;11.20;79.20
45643;DHT22;31358;46.008;11.144;2023-04-03T01:28:38;11.20;79.00
45643;DHT22;31358;46.008;11.144;2023-04-03T01:31:29;11.20;79.00
45643;DHT22;31358;46.008;11.144;2023-04-03T01:33:55;11.30;79.00
45643;DHT22;31358;46.008;11.144;2023-04-03T01:36:24;11.40;78.80
45643;DHT22;31358;46.008;11.144;2023-04-03T01:38:50;11.50;78.60
45643;DHT22;31358;46.008;11.144;2023-04-03T01:41:16;11.50;78.60
45643;DHT22;31358;46.008;11.144;2023-04-03T01:43:43;11.40;78.80
45643;DHT22;31358;46.008;11.144;2023-04-03T01:46:08;11.20;79.20
45643;DHT22;31358;46.008;11.144;2023-04-03T01:48:34;11.30;79.10
45643;DHT22;31358;46.008;11.144;2023-04-03T01:51:00;11.20;79.30
45643;DHT22;31358;46.008;11.144;2023-04-03T01:53:25;11.00;79.70
45643;DHT22;31358;46.008;11.144;2023-04-03T01:55:51;10.90;79.90
45643;DHT22;31358;46.008;11.144;2023-04-03T01:58:17;11.20;79.30
45643;DHT22;31358;46.008;11.144;2023-04-03T02:00:42;11.10;79.60
45643;DHT22;31358;46.008;11.144;2023-04-03T02:03:08;10.90;79.90
45643;DHT22;31358;46.008;11.144;2023-04-03T02:05:34;11.00;79.80
45643;DHT22;31358;46.008;11.144;2023-04-03T02:08:00;11.30;79.40
45643;DHT22;31358;46.008;11.144;2023-04-03T02:10:25;11.30;79.20
45643;DHT22;31358;46.008;11.144;2023-04-03T02:12:51;11.40;78.90
45643;DHT22;31358;46.008;11.144;2023-04-03T02:15:17;11.40;79.00
45643;DHT22;31358;46.008;11.144;2023-04-03T02:17:43;11.40;78.90
45643;DHT22;31358;46.008;11.144;2023-04-03T02:20:09;11.30;79.20
45643;DHT22;31358;46.008;11.144;2023-04-03T02:22:35;11.30;79.10
45643;DHT22;31358;46.008;11.144;2023-04-03T02:25:01;11.40;79.10
45643;DHT22;31358;46.008;11.144;2023-04-03T02:27:27;11.30;79.10
45643;DHT22;31358;46.008;11.144;2023-04-03T02:29:53;11.30;78.90
45643;DHT22;31358;46.008;11.144;2023-04-03T02:32:18;11.40;79.00
45643;DHT22;31358;46.008;11.144;2023-04-03T02:34:44;11.30;79.10
45643;DHT22;31358;46.008;11.144;2023-04-03T02:37:10;11.30;79.20
45643;DHT22;31358;46.008;11.144;2023-04-03T02:39:36;11.20;79.30
45643;DHT22;31358;46.008;11.144;2023-04-03T02:42:02;11.30;79.20
45643;DHT22;31358;46.008;11.144;2023-04-03T02:44:28;11.30;79.20
45643;DHT22;31358;46.008;11.144;2023-04-03T02:46:53;11.30;79.40
45643;DHT22;31358;46.008;11.144;2023-04-03T02:49:19;11.30;79.40
45643;DHT22;31358;46.008;11.144;2023-04-03T02:51:45;11.30;79.40
45643;DHT22;31358;46.008;11.144;2023-04-03T02:54:11;11.30;79.60
45643;DHT22;31358;46.008;11.144;2023-04-03T02:56:37;11.10;79.90
45643;DHT22;31358;46.008;11.144;2023-04-03T02:59:03;11.20;79.80
45643;DHT22;31358;46.008;11.144;2023-04-03T03:01:29;11.00;80.10
45643;DHT22;31358;46.008;11.144;2023-04-03T03:03:57;11.10;80.00
45643;DHT22;31358;46.008;11.144;2023-04-03T03:06:23;11.00;80.30
45643;DHT22;31358;46.008;11.144;2023-04-03T03:08:49;11.00;80.30
45643;DHT22;31358;46.008;11.144;2023-04-03T03:11:14;11.00;80.30
45643;DHT22;31358;46.008;11.144;2023-04-03T03:13:40;10.80;80.80
45643;DHT22;31358;46.008;11.144;2023-04-03T03:16:07;10.90;80.80
45643;DHT22;31358;46.008;11.144;2023-04-03T03:18:32;10.80;80.70
45643;DHT22;31358;46.008;11.144;2023-04-03T03:21:01;10.80;81.00
45643;DHT22;31358;46.008;11.144;2023-04-03T03:23:29;10.80;80.90
45643;DHT22;31358;46.008;11.144;2023-04-03T03:26:02;10.80;81.00
45643;DHT22;31358;46.008;11.144;2023-04-03T03:28:28;10.80;81.10
45643;DHT22;31358;46.008;11.144;2023-04-03T03:30:54;10.70;81.10
45643;DHT22;31358;46.008;11.144;2023-04-03T03:33:19;10.60;81.10
45643;DHT22;31358;46.008;11.144;2023-04-03T03:35:45;10.60;81.10
45643;DHT22;31358;46.008;11.144;2023-04-03T03:38:11;10.70;81.20
45643;DHT22;31358;46.008;11.144;2023-04-03T03:40:37;10.60;81.40
45643;DHT22;31358;46.008;11.144;2023-04-03T03:43:02;10.60;81.10
45643;DHT22;31358;46.008;11.144;2023-04-03T03:45:28;10.60;81.60
45643;DHT22;31358;46.008;11.144;2023-04-03T03:47:54;10.40;81.60
45643;DHT22;31358;46.008;11.144;2023-04-03T03:50:20;10.50;81.60
45643;DHT22;31358;46.008;11.144;2023-04-03T03:52:46;10.40;81.70
45643;DHT22;31358;46.008;11.144;2023-04-03T03:55:11;10.10;82.40
45643;DHT22;31358;46.008;11.144;2023-04-03T03:57:37;10.10;82.50
45643;DHT22;31358;46.008;11.144;2023-04-03T04:00:03;10.00;82.80
45643;DHT22;31358;46.008;11.144;2023-04-03T04:02:29;10.10;82.50
45643;DHT22;31358;46.008;11.144;2023-04-03T04:04:55;10.10;82.50
45643;DHT22;31358;46.008;11.144;2023-04-03T04:07:21;10.10;82.70
45643;DHT22;31358;46.008;11.144;2023-04-03T04:09:47;10.10;82.40
45643;DHT22;31358;46.008;11.144;2023-04-03T04:12:13;10.00;82.60
45643;DHT22;31358;46.008;11.144;2023-04-03T04:14:38;9.80;83.20
45643;DHT22;31358;46.008;11.144;2023-04-03T04:17:05;9.70;83.50
45643;DHT22;31358;46.008;11.144;2023-04-03T04:19:30;9.70;83.50
45643;DHT22;31358;46.008;11.144;2023-04-03T04:21:56;10.00;83.00
45643;DHT22;31358;46.008;11.144;2023-04-03T04:24:22;9.80;83.20
45643;DHT22;31358;46.008;11.144;2023-04-03T04:26:50;9.30;83.90
45643;DHT22;31358;46.008;11.144;2023-04-03T04:29:16;9.40;84.20
45643;DHT22;31358;46.008;11.144;2023-04-03T04:31:42;9.50;84.00
45643;DHT22;31358;46.008;11.144;2023-04-03T04:34:07;9.30;84.40
45643;DHT22;31358;46.008;11.144;2023-04-03T04:36:33;9.10;84.60
45643;DHT22;31358;46.008;11.144;2023-04-03T04:38:59;8.90;84.80
45643;DHT22;31358;46.008;11.144;2023-04-03T04:41:25;8.70;85.80
45643;DHT22;31358;46.008;11.144;2023-04-03T04:43:51;8.70;85.90
45643;DHT22;31358;46.008;11.144;2023-04-03T04:46:17;8.80;85.70
45643;DHT22;31358;46.008;11.144;2023-04-03T04:48:43;8.40;86.70
45643;DHT22;31358;46.008;11.144;2023-04-03T04:51:09;8.50;87.20
45643;DHT22;31358;46.008;11.144;2023-04-03T04:53:35;8.80;86.10
45643;DHT22;31358;46.008;11.144;2023-04-03T04:56:01;8.80;85.70
45643;DHT22;31358;46.008;11.144;2023-04-03T04:58:27;9.00;85.50
45643;DHT22;31358;46.008;11.144;2023-04-03T05:01:00;8.90;85.40
45643;DHT22;31358;46.008;11.144;2023-04-03T05:03:26;8.90;85.70
45643;DHT22;31358;46.008;11.144;2023-04-03T05:05:51;8.80;85.70
45643;DHT22;31358;46.008;11.144;2023-04-03T05:08:17;8.60;86.10
45643;DHT22;31358;46.008;11.144;2023-04-03T05:10:45;8.80;85.90
45643;DHT22;31358;46.008;11.144;2023-04-03T05:13:11;9.00;85.90
45643;DHT22;31358;46.008;11.144;2023-04-03T05:15:37;8.80;86.10
45643;DHT22;31358;46.008;11.144;2023-04-03T05:18:03;8.70;86.40
45643;DHT22;31358;46.008;11.144;2023-04-03T05:20:30;8.70;86.30
45643;DHT22;31358;46.008;11.144;2023-04-03T05:22:56;8.50;87.40
45643;DHT22;31358;46.008;11.144;2023-04-03T05:25:22;8.30;89.10
45643;DHT22;31358;46.008;11.144;2023-04-03T05:27:47;8.30;88.30
45643;DHT22;31358;46.008;11.144;2023-04-03T05:30:13;8.70;87.10
45643;DHT22;31358;46.008;11.144;2023-04-03T05:32:39;8.80;86.90
45643;DHT22;31358;46.008;11.144;2023-04-03T05:35:05;8.90;86.40
45643;DHT22;31358;46.008;11.144;2023-04-03T05:37:31;8.90;86.40
45643;DHT22;31358;46.008;11.144;2023-04-03T05:39:57;8.80;86.70
45643;DHT22;31358;46.008;11.144;2023-04-03T05:42:23;8.90;86.50
45643;DHT22;31358;46.008;11.144;2023-04-03T05:44:48;9.10;86.30
45643;DHT22;31358;46.008;11.144;2023-04-03T05:47:16;8.80;86.90
45643;DHT22;31358;46.008;11.144;2023-04-03T05:49:41;8.90;86.60
45643;DHT22;31358;46.008;11.144;2023-04-03T05:52:27;8.90;86.70
45643;DHT22;31358;46.008;11.144;2023-04-03T05:54:54;8.80;87.00
45643;DHT22;31358;46.008;11.144;2023-04-03T05:57:20;8.70;87.50
45643;DHT22;31358;46.008;11.144;2023-04-03T05:59:46;8.80;87.60
45643;DHT22;31358;46.008;11.144;2023-04-03T06:02:17;8.80;87.40
45643;DHT22;31358;46.008;11.144;2023-04-03T06:04:44;9.00;86.40
45643;DHT22;31358;46.008;11.144;2023-04-03T06:07:18;9.00;86.60
45643;DHT22;31358;46.008;11.144;2023-04-03T06:09:46;9.10;86.90
45643;DHT22;31358;46.008;11.144;2023-04-03T06:12:12;9.60;84.50
45643;DHT22;31358;46.008;11.144;2023-04-03T06:14:38;9.60;84.80
45643;DHT22;31358;46.008;11.144;2023-04-03T06:17:04;9.40;85.20
45643;DHT22;31358;46.008;11.144;2023-04-03T06:19:30;9.40;85.30
45643;DHT22;31358;46.008;11.144;2023-04-03T06:21:56;9.40;85.30
45643;DHT22;31358;46.008;11.144;2023-04-03T06:24:22;9.30;85.70
45643;DHT22;31358;46.008;11.144;2023-04-03T06:26:49;9.20;85.80
45643;DHT22;31358;46.008;11.144;2023-04-03T06:29:17;9.70;84.30
45643;DHT22;31358;46.008;11.144;2023-04-03T06:31:43;9.90;83.50
45643;DHT22;31358;46.008;11.144;2023-04-03T06:34:09;9.90;84.10
45643;DHT22;31358;46.008;11.144;2023-04-03T06:36:36;10.10;82.70
45643;DHT22;31358;46.008;11.144;2023-04-03T06:39:03;10.60;81.40
45643;DHT22;31358;46.008;11.144;2023-04-03T06:41:29;10.70;81.00
45643;DHT22;31358;46.008;11.144;2023-04-03T06:43:54;10.70;80.80
45643;DHT22;31358;46.008;11.144;2023-04-03T06:46:23;10.70;81.00
45643;DHT22;31358;46.008;11.144;2023-04-03T06:48:49;10.60;81.70
45643;DHT22;31358;46.008;11.144;2023-04-03T06:53:44;10.80;81.10
45643;DHT22;31358;46.008;11.144;2023-04-03T06:56:11;10.80;81.30
45643;DHT22;31358;46.008;11.144;2023-04-03T06:58:36;10.90;81.40
45643;DHT22;31358;46.008;11.144;2023-04-03T07:01:03;11.20;79.20
45643;DHT22;31358;46.008;11.144;2023-04-03T07:03:29;13.50;77.10
45643;DHT22;31358;46.008;11.144;2023-04-03T07:05:54;16.40;73.10
45643;DHT22;31358;46.008;11.144;2023-04-03T07:08:20;18.10;69.50
45643;DHT22;31358;46.008;11.144;2023-04-03T07:10:48;18.10;70.10
45643;DHT22;31358;46.008;11.144;2023-04-03T07:13:13;18.00;68.60
45643;DHT22;31358;46.008;11.144;2023-04-03T07:15:40;19.50;68.20
45643;DHT22;31358;46.008;11.144;2023-04-03T07:18:05;18.70;66.90
45643;DHT22;31358;46.008;11.144;2023-04-03T07:20:31;19.20;66.10
45643;DHT22;31358;46.008;11.144;2023-04-03T07:22:57;17.00;66.90
45643;DHT22;31358;46.008;11.144;2023-04-03T07:25:22;14.20;73.30
45643;DHT22;31358;46.008;11.144;2023-04-03T07:27:48;12.90;73.50
45643;DHT22;31358;46.008;11.144;2023-04-03T07:30:15;12.30;74.80
45643;DHT22;31358;46.008;11.144;2023-04-03T07:32:41;12.10;75.40
45643;DHT22;31358;46.008;11.144;2023-04-03T07:35:06;11.90;75.10
45643;DHT22;31358;46.008;11.144;2023-04-03T07:37:32;12.00;75.50
45643;DHT22;31358;46.008;11.144;2023-04-03T07:39:58;11.90;76.00
45643;DHT22;31358;46.008;11.144;2023-04-03T07:42:25;12.00;75.40
45643;DHT22;31358;46.008;11.144;2023-04-03T07:44:53;11.90;75.40
45643;DHT22;31358;46.008;11.144;2023-04-03T07:47:19;11.90;76.00
45643;DHT22;31358;46.008;11.144;2023-04-03T07:49:45;11.80;75.30
45643;DHT22;31358;46.008;11.144;2023-04-03T07:52:11;11.90;75.40
45643;DHT22;31358;46.008;11.144;2023-04-03T07:54:37;11.90;75.40
45643;DHT22;31358;46.008;11.144;2023-04-03T07:57:03;12.00;75.20
45643;DHT22;31358;46.008;11.144;2023-04-03T07:59:29;12.20;75.20
45643;DHT22;31358;46.008;11.144;2023-04-03T08:01:55;12.20;74.80
45643;DHT22;31358;46.008;11.144;2023-04-03T08:04:21;12.10;75.00
45643;DHT22;31358;46.008;11.144;2023-04-03T08:06:46;12.20;75.30
45643;DHT22;31358;46.008;11.144;2023-04-03T08:09:15;12.30;73.90
45643;DHT22;31358;46.008;11.144;2023-04-03T08:11:41;12.40;74.20
45643;DHT22;31358;46.008;11.144;2023-04-03T08:14:07;12.40;74.20
45643;DHT22;31358;46.008;11.144;2023-04-03T08:16:33;12.40;73.70
45643;DHT22;31358;46.008;11.144;2023-04-03T08:18:59;12.50;73.90
45643;DHT22;31358;46.008;11.144;2023-04-03T08:21:25;12.50;74.60
45643;DHT22;31358;46.008;11.144;2023-04-03T08:23:51;12.70;74.50
45643;DHT22;31358;46.008;11.144;2023-04-03T08:26:19;12.70;74.10
45643;DHT22;31358;46.008;11.144;2023-04-03T08:28:47;12.70;73.60
45643;DHT22;31358;46.008;11.144;2023-04-03T08:31:18;12.80;73.30
45643;DHT22;31358;46.008;11.144;2023-04-03T08:33:46;12.90;74.00
45643;DHT22;31358;46.008;11.144;2023-04-03T08:36:23;13.00;73.30
45643;DHT22;31358;46.008;11.144;2023-04-03T08:38:50;13.10;73.00
45643;DHT22;31358;46.008;11.144;2023-04-03T08:49:42;13.30;71.10
45643;DHT22;31358;46.008;11.144;2023-04-03T08:52:17;13.30;71.80
45643;DHT22;31358;46.008;11.144;2023-04-03T08:54:57;13.60;72.30
45643;DHT22;31358;46.008;11.144;2023-04-03T08:57:34;13.80;70.60
45643;DHT22;31358;46.008;11.144;2023-04-03T09:00:05;13.70;68.40
45643;DHT22;31358;46.008;11.144;2023-04-03T09:02:49;13.90;68.80
45643;DHT22;31358;46.008;11.144;2023-04-03T09:05:20;15.10;68.00
45643;DHT22;31358;46.008;11.144;2023-04-03T09:08:00;19.00;66.50
45643;DHT22;31358;46.008;11.144;2023-04-03T09:10:33;20.60;65.10
45643;DHT22;31358;46.008;11.144;2023-04-03T09:13:17;21.10;61.20
45643;DHT22;31358;46.008;11.144;2023-04-03T09:15:45;20.10;61.40
45643;DHT22;31358;46.008;11.144;2023-04-03T09:18:20;21.50;60.00
45643;DHT22;31358;46.008;11.144;2023-04-03T09:21:14;20.40;57.30
45643;DHT22;31358;46.008;11.144;2023-04-03T09:23:46;20.60;58.80
45643;DHT22;31358;46.008;11.144;2023-04-03T09:28:41;20.30;57.30
45643;DHT22;31358;46.008;11.144;2023-04-03T09:34:05;20.80;57.50
45643;DHT22;31358;46.008;11.144;2023-04-03T09:36:52;21.20;55.70
45643;DHT22;31358;46.008;11.144;2023-04-03T09:39:27;21.60;55.10
45643;DHT22;31358;46.008;11.144;2023-04-03T09:44:27;21.10;55.30
45643;DHT22;31358;46.008;11.144;2023-04-03T09:46:53;20.40;54.70
45643;DHT22;31358;46.008;11.144;2023-04-03T09:49:19;19.80;55.20
45643;DHT22;31358;46.008;11.144;2023-04-03T09:51:45;18.80;56.40
45643;DHT22;31358;46.008;11.144;2023-04-03T09:54:34;18.00;56.40
45643;DHT22;31358;46.008;11.144;2023-04-03T09:57:13;17.60;58.20
45643;DHT22;31358;46.008;11.144;2023-04-03T10:00:03;16.80;57.40
45643;DHT22;31358;46.008;11.144;2023-04-03T10:02:38;16.50;56.70
45643;DHT22;31358;46.008;11.144;2023-04-03T10:10:39;16.50;53.50
45643;DHT22;31358;46.008;11.144;2023-04-03T10:13:19;16.80;55.10
45643;DHT22;31358;46.008;11.144;2023-04-03T10:16:10;16.90;52.30
45643;DHT22;31358;46.008;11.144;2023-04-03T10:18:45;16.80;51.60
45643;DHT22;31358;46.008;11.144;2023-04-03T10:21:29;17.00;52.10
45643;DHT22;31358;46.008;11.144;2023-04-03T10:24:18;17.20;52.20
45643;DHT22;31358;46.008;11.144;2023-04-03T10:29:19;17.30;52.00
45643;DHT22;31358;46.008;11.144;2023-04-03T10:34:58;17.20;50.60
45643;DHT22;31358;46.008;11.144;2023-04-03T10:40:47;17.50;50.90
45643;DHT22;31358;46.008;11.144;2023-04-03T10:43:38;17.20;47.40
45643;DHT22;31358;46.008;11.144;2023-04-03T10:46:35;17.30;47.50
45643;DHT22;31358;46.008;11.144;2023-04-03T10:51:48;18.20;49.60
45643;DHT22;31358;46.008;11.144;2023-04-03T10:54:38;17.80;46.40
45643;DHT22;31358;46.008;11.144;2023-04-03T10:57:08;17.70;49.20
45643;DHT22;31358;46.008;11.144;2023-04-03T10:59:39;17.80;50.20
45643;DHT22;31358;46.008;11.144;2023-04-03T11:04:48;17.90;49.20
45643;DHT22;31358;46.008;11.144;2023-04-03T11:07:24;18.00;48.80
45643;DHT22;31358;46.008;11.144;2023-04-03T11:09:58;17.80;48.20
45643;DHT22;31358;46.008;11.144;2023-04-03T11:12:44;17.40;45.40
45643;DHT22;31358;46.008;11.144;2023-04-03T11:15:16;17.50;45.40
45643;DHT22;31358;46.008;11.144;2023-04-03T11:18:01;17.70;46.30
45643;DHT22;31358;46.008;11.144;2023-04-03T11:20:31;17.80;45.60
45643;DHT22;31358;46.008;11.144;2023-04-03T11:23:08;18.10;45.50
45643;DHT22;31358;46.008;11.144;2023-04-03T11:25:38;18.10;46.00
45643;DHT22;31358;46.008;11.144;2023-04-03T11:28:12;18.50;46.00
45643;DHT22;31358;46.008;11.144;2023-04-03T11:36:22;18.10;44.00
45643;DHT22;31358;46.008;11.144;2023-04-03T11:38:52;18.40;45.80
45643;DHT22;31358;46.008;11.144;2023-04-03T11:41:26;18.50;44.80
45643;DHT22;31358;46.008;11.144;2023-04-03T11:43:59;18.00;43.20
45643;DHT22;31358;46.008;11.144;2023-04-03T11:46:57;18.20;44.30
45643;DHT22;31358;46.008;11.144;2023-04-03T11:50:01;17.80;43.80
45643;DHT22;31358;46.008;11.144;2023-04-03T12:29:38;18.50;43.00
45643;DHT22;31358;46.008;11.144;2023-04-03T12:46:01;18.40;42.20
45643;DHT22;31358;46.008;11.144;2023-04-03T12:51:15;18.80;42.50
45643;DHT22;31358;46.008;11.144;2023-04-03T12:53:44;18.50;41.60
45643;DHT22;31358;46.008;11.144;2023-04-03T12:56:31;18.20;41.00
45643;DHT22;31358;46.008;11.144;2023-04-03T12:59:32;18.80;43.00
45643;DHT22;31358;46.008;11.144;2023-04-03T13:02:07;18.60;41.50
45643;DHT22;31358;46.008;11.144;2023-04-03T13:04:38;18.80;41.70
45643;DHT22;31358;46.008;11.144;2023-04-03T13:07:04;18.60;41.10
45643;DHT22;31358;46.008;11.144;2023-04-03T13:09:31;18.80;39.90
45643;DHT22;31358;46.008;11.144;2023-04-03T13:12:12;18.80;41.20
45643;DHT22;31358;46.008;11.144;2023-04-03T13:14:39;18.70;39.90
45643;DHT22;31358;46.008;11.144;2023-04-03T13:17:17;18.60;40.70
45643;DHT22;31358;46.008;11.144;2023-04-03T13:19:44;18.80;41.10
45643;DHT22;31358;46.008;11.144;2023-04-03T13:22:31;19.00;42.50
45643;DHT22;31358;46.008;11.144;2023-04-03T13:25:01;18.60;39.70
45643;DHT22;31358;46.008;11.144;2023-04-03T13:27:30;18.30;39.20
45643;DHT22;31358;46.008;11.144;2023-04-03T13:29:58;18.50;39.70
45643;DHT22;31358;46.008;11.144;2023-04-03T13:32:27;18.60;40.10
45643;DHT22;31358;46.008;11.144;2023-04-03T13:34:54;18.60;39.40
45643;DHT22;31358;46.008;11.144;2023-04-03T13:37:38;19.00;42.70
45643;DHT22;31358;46.008;11.144;2023-04-03T13:42:37;18.80;39.60
45643;DHT22;31358;46.008;11.144;2023-04-03T13:47:46;18.90;40.10
45643;DHT22;31358;46.008;11.144;2023-04-03T13:52:54;18.80;41.40
45643;DHT22;31358;46.008;11.144;2023-04-03T14:03:36;19.00;42.90
45643;DHT22;31358;46.008;11.144;2023-04-03T14:06:04;19.00;42.20
45643;DHT22;31358;46.008;11.144;2023-04-03T14:08:30;18.60;42.90
45643;DHT22;31358;46.008;11.144;2023-04-03T14:10:56;18.50;40.80
45643;DHT22;31358;46.008;11.144;2023-04-03T14:13:22;18.70;40.50
45643;DHT22;31358;46.008;11.144;2023-04-03T14:15:48;18.90;42.60
45643;DHT22;31358;46.008;11.144;2023-04-03T14:18:18;18.80;42.40
45643;DHT22;31358;46.008;11.144;2023-04-03T14:20:45;19.00;43.40
45643;DHT22;31358;46.008;11.144;2023-04-03T14:23:11;19.00;44.00
45643;DHT22;31358;46.008;11.144;2023-04-03T14:25:37;18.80;42.90
45643;DHT22;31358;46.008;11.144;2023-04-03T14:28:17;18.80;42.60
45643;DHT22;31358;46.008;11.144;2023-04-03T14:30:44;18.90;43.30
45643;DHT22;31358;46.008;11.144;2023-04-03T14:33:16;18.50;43.30
45643;DHT22;31358;46.008;11.144;2023-04-03T14:35:43;18.80;44.80
45643;DHT22;31358;46.008;11.144;2023-04-03T14:38:29;18.60;44.90
45643;DHT22;31358;46.008;11.144;2023-04-03T14:40:56;18.80;44.50
45643;DHT22;31358;46.008;11.144;2023-04-03T14:43:22;18.90;44.00
45643;DHT22;31358;46.008;11.144;2023-04-03T14:45:49;18.80;42.80
45643;DHT22;31358;46.008;11.144;2023-04-03T14:48:22;18.80;43.10
45643;DHT22;31358;46.008;11.144;2023-04-03T14:50:49;18.70;42.90
45643;DHT22;31358;46.008;11.144;2023-04-03T14:53:15;18.50;42.20
45643;DHT22;31358;46.008;11.144;2023-04-03T14:55:44;18.70;42.50
45643;DHT22;31358;46.008;11.144;2023-04-03T14:58:15;18.80;41.90
45643;DHT22;31358;46.008;11.144;2023-04-03T15:00:41;18.50;42.30
45643;DHT22;31358;46.008;11.144;2023-04-03T15:03:17;18.50;43.00
45643;DHT22;31358;46.008;11.144;2023-04-03T15:05:45;18.60;43.20
45643;DHT22;31358;46.008;11.144;2023-04-03T15:08:22;18.60;43.30
45643;DHT22;31358;46.008;11.144;2023-04-03T15:10:50;18.60;43.90
45643;DHT22;31358;46.008;11.144;2023-04-03T15:13:18;18.60;45.70
45643;DHT22;31358;46.008;11.144;2023-04-03T15:15:44;18.50;44.10
45643;DHT22;31358;46.008;11.144;2023-04-03T15:18:14;18.20;44.70
45643;DHT22;31358;46.008;11.144;2023-04-03T15:20:40;18.00;44.90
45643;DHT22;31358;46.008;11.144;2023-04-03T15:23:06;18.10;45.10
45643;DHT22;31358;46.008;11.144;2023-04-03T15:25:32;18.40;45.50
45643;DHT22;31358;46.008;11.144;2023-04-03T15:27:58;18.40;45.00
45643;DHT22;31358;46.008;11.144;2023-04-03T15:30:25;18.10;45.10
45643;DHT22;31358;46.008;11.144;2023-04-03T15:32:50;18.00;46.40
45643;DHT22;31358;46.008;11.144;2023-04-03T15:35:17;17.90;46.50
45643;DHT22;31358;46.008;11.144;2023-04-03T15:37:42;18.00;46.70
45643;DHT22;31358;46.008;11.144;2023-04-03T15:40:09;17.70;45.30
45643;DHT22;31358;46.008;11.144;2023-04-03T15:42:34;17.80;46.60
45643;DHT22;31358;46.008;11.144;2023-04-03T15:45:00;17.70;45.90
45643;DHT22;31358;46.008;11.144;2023-04-03T15:47:26;17.80;45.90
45643;DHT22;31358;46.008;11.144;2023-04-03T15:49:53;17.60;47.10
45643;DHT22;31358;46.008;11.144;2023-04-03T15:52:20;17.60;47.00
45643;DHT22;31358;46.008;11.144;2023-04-03T15:54:45;17.50;47.70
45643;DHT22;31358;46.008;11.144;2023-04-03T15:57:11;17.50;47.30
45643;DHT22;31358;46.008;11.144;2023-04-03T15:59:37;17.30;54.60
45643;DHT22;31358;46.008;11.144;2023-04-03T16:02:05;17.10;55.70
45643;DHT22;31358;46.008;11.144;2023-04-03T16:04:32;17.30;56.40
45643;DHT22;31358;46.008;11.144;2023-04-03T16:07:02;17.20;56.00
45643;DHT22;31358;46.008;11.144;2023-04-03T16:09:28;17.20;54.90
45643;DHT22;31358;46.008;11.144;2023-04-03T16:11:53;17.20;55.60
45643;DHT22;31358;46.008;11.144;2023-04-03T16:14:19;17.00;56.00
45643;DHT22;31358;46.008;11.144;2023-04-03T16:16:45;17.00;57.10
45643;DHT22;31358;46.008;11.144;2023-04-03T16:19:11;16.80;57.80
45643;DHT22;31358;46.008;11.144;2023-04-03T16:21:36;16.70;56.70
45643;DHT22;31358;46.008;11.144;2023-04-03T16:24:02;16.60;56.80
45643;DHT22;31358;46.008;11.144;2023-04-03T16:26:28;16.40;55.90
45643;DHT22;31358;46.008;11.144;2023-04-03T16:28:54;16.40;55.40
45643;DHT22;31358;46.008;11.144;2023-04-03T16:31:20;16.30;55.70
45643;DHT22;31358;46.008;11.144;2023-04-03T16:33:47;16.30;55.80
45643;DHT22;31358;46.008;11.144;2023-04-03T16:36:13;16.30;55.40
45643;DHT22;31358;46.008;11.144;2023-04-03T16:38:38;16.30;55.60
45643;DHT22;31358;46.008;11.144;2023-04-03T16:41:04;16.10;54.60
45643;DHT22;31358;46.008;11.144;2023-04-03T16:43:31;16.10;61.50
45643;DHT22;31358;46.008;11.144;2023-04-03T16:45:57;15.90;64.70
45643;DHT22;31358;46.008;11.144;2023-04-03T16:48:23;15.70;68.00
45643;DHT22;31358;46.008;11.144;2023-04-03T16:50:49;15.30;68.50
45643;DHT22;31358;46.008;11.144;2023-04-03T16:53:22;15.00;68.40
45643;DHT22;31358;46.008;11.144;2023-04-03T16:55:48;14.70;63.90
45643;DHT22;31358;46.008;11.144;2023-04-03T16:58:14;14.80;65.10
45643;DHT22;31358;46.008;11.144;2023-04-03T17:00:41;14.60;65.50
45643;DHT22;31358;46.008;11.144;2023-04-03T17:03:06;14.50;61.00
45643;DHT22;31358;46.008;11.144;2023-04-03T17:05:32;14.50;60.60
45643;DHT22;31358;46.008;11.144;2023-04-03T17:07:58;14.30;58.40
45643;DHT22;31358;46.008;11.144;2023-04-03T17:10:24;14.30;58.80
45643;DHT22;31358;46.008;11.144;2023-04-03T17:12:50;14.20;61.90
45643;DHT22;31358;46.008;11.144;2023-04-03T17:15:16;14.00;69.50
45643;DHT22;31358;46.008;11.144;2023-04-03T17:17:41;13.80;70.90
45643;DHT22;31358;46.008;11.144;2023-04-03T17:20:07;13.60;70.80
45643;DHT22;31358;46.008;11.144;2023-04-03T17:22:34;13.60;73.30
45643;DHT22;31358;46.008;11.144;2023-04-03T17:25:00;13.50;75.00